sensor_id;sensor_type;location;lat;lon;timestamp;pressure;altitude;pressure_sealevel;temperature;humidity
67740;BME280;54536;50.090;14.420;2023-02-15T00:01:59;101101.75;;;7.84;55.19
67740;BME280;54536;50.090;14.420;2023-02-15T00:04:25;101096.84;;;7.95;55.25
67740;BME280;54536;50.090;14.420;2023-02-15T00:07:14;101098.06;;;8.06;54.96
67740;BME280;54536;50.090;14.420;2023-02-15T00:09:40;101093.84;;;7.86;55.48
67740;BME280;54536;50.090;14.420;2023-02-15T00:12:06;101096.91;;;7.77;55.71
67740;BME280;54536;50.090;14.420;2023-02-15T00:14:33;101092.13;;;7.50;55.86
67740;BME280;54536;50.090;14.420;2023-02-15T00:16:59;101096.06;;;7.59;56.15
67740;BME280;54536;50.090;14.420;2023-02-15T00:19:25;101097.22;;;7.70;55.53
67740;BME280;54536;50.090;14.420;2023-02-15T00:21:51;101093.69;;;7.89;55.07
67740;BME280;54536;50.090;14.420;2023-02-15T00:24:19;101097.31;;;7.86;55.44
67740;BME280;54536;50.090;14.420;2023-02-15T00:26:47;101093.66;;;7.71;55.05
67740;BME280;54536;50.090;14.420;2023-02-15T00:29:14;101092.38;;;7.80;55.66
67740;BME280;54536;50.090;14.420;2023-02-15T00:31:42;101086.00;;;7.68;55.64
67740;BME280;54536;50.090;14.420;2023-02-15T00:34:13;101093.75;;;7.70;55.67
67740;BME280;54536;50.090;14.420;2023-02-15T00:36:40;101092.44;;;7.61;55.73
67740;BME280;54536;50.090;14.420;2023-02-15T00:39:06;101084.66;;;7.77;55.62
67740;BME280;54536;50.090;14.420;2023-02-15T00:41:34;101091.91;;;7.89;54.64
67740;BME280;54536;50.090;14.420;2023-02-15T00:44:00;101083.91;;;7.92;55.29
67740;BME280;54536;50.090;14.420;2023-02-15T00:46:27;101089.22;;;7.73;55.04
67740;BME280;54536;50.090;14.420;2023-02-15T00:48:53;101090.28;;;7.52;54.99
67740;BME280;54536;50.090;14.420;2023-02-15T00:51:19;101087.09;;;7.45;55.88
67740;BME280;54536;50.090;14.420;2023-02-15T00:53:46;101086.72;;;7.53;55.46
67740;BME280;54536;50.090;14.420;2023-02-15T00:56:13;101076.66;;;7.63;55.23
67740;BME280;54536;50.090;14.420;2023-02-15T00:58:39;101084.81;;;7.57;55.53
67740;BME280;54536;50.090;14.420;2023-02-15T01:01:17;101073.81;;;7.67;56.53
67740;BME280;54536;50.090;14.420;2023-02-15T01:03:44;101075.56;;;7.67;55.32
67740;BME280;54536;50.090;14.420;2023-02-15T01:06:14;101087.28;;;7.60;56.01
67740;BME280;54536;50.090;14.420;2023-02-15T01:08:41;101080.56;;;7.71;55.25
67740;BME280;54536;50.090;14.420;2023-02-15T01:11:12;101072.97;;;7.67;55.76
67740;BME280;54536;50.090;14.420;2023-02-15T01:13:40;101078.34;;;7.64;56.07
67740;BME280;54536;50.090;14.420;2023-02-15T01:16:08;101072.50;;;7.59;55.15
67740;BME280;54536;50.090;14.420;2023-02-15T01:18:35;101069.56;;;7.65;55.26
67740;BME280;54536;50.090;14.420;2023-02-15T01:21:10;101065.16;;;7.48;56.08
67740;BME280;54536;50.090;14.420;2023-02-15T01:23:36;101066.31;;;7.42;56.17
67740;BME280;54536;50.090;14.420;2023-02-15T01:26:03;101064.25;;;7.49;55.78
67740;BME280;54536;50.090;14.420;2023-02-15T01:28:29;101056.41;;;7.49;56.45
67740;BME280;54536;50.090;14.420;2023-02-15T01:30:55;101057.84;;;7.37;56.04
67740;BME280;54536;50.090;14.420;2023-02-15T01:33:21;101059.06;;;7.30;55.86
67740;BME280;54536;50.090;14.420;2023-02-15T01:35:48;101054.97;;;7.42;55.81
67740;BME280;54536;50.090;14.420;2023-02-15T01:38:14;101043.13;;;7.35;56.43
67740;BME280;54536;50.090;14.420;2023-02-15T01:40:40;101045.75;;;7.35;56.24
67740;BME280;54536;50.090;14.420;2023-02-15T01:43:11;101036.50;;;7.45;56.53
67740;BME280;54536;50.090;14.420;2023-02-15T01:45:39;101048.38;;;7.35;56.13
67740;BME280;54536;50.090;14.420;2023-02-15T01:50:43;101039.22;;;7.43;56.25
67740;BME280;54536;50.090;14.420;2023-02-15T01:53:43;101031.81;;;7.51;55.94
67740;BME280;54536;50.090;14.420;2023-02-15T01:56:21;101028.31;;;7.53;55.58
67740;BME280;54536;50.090;14.420;2023-02-15T01:58:52;101022.97;;;7.54;55.88
67740;BME280;54536;50.090;14.420;2023-02-15T02:01:22;101021.84;;;7.42;56.42
67740;BME280;54536;50.090;14.420;2023-02-15T02:06:33;101021.19;;;7.20;56.60
67740;BME280;54536;50.090;14.420;2023-02-15T02:09:01;101019.28;;;7.23;56.77
67740;BME280;54536;50.090;14.420;2023-02-15T02:11:28;101016.72;;;7.22;56.37
67740;BME280;54536;50.090;14.420;2023-02-15T02:13:55;101018.44;;;7.23;56.93
67740;BME280;54536;50.090;14.420;2023-02-15T02:25:22;101015.44;;;7.31;55.33
67740;BME280;54536;50.090;14.420;2023-02-15T02:39:34;101004.69;;;7.00;57.47
67740;BME280;54536;50.090;14.420;2023-02-15T02:44:56;101005.53;;;7.01;57.30
67740;BME280;54536;50.090;14.420;2023-02-15T02:50:14;101014.66;;;6.92;57.19
67740;BME280;54536;50.090;14.420;2023-02-15T02:52:44;101012.53;;;7.00;57.01
67740;BME280;54536;50.090;14.420;2023-02-15T03:00:54;101012.00;;;6.75;57.60
67740;BME280;54536;50.090;14.420;2023-02-15T03:03:40;100999.06;;;6.91;56.71
67740;BME280;54536;50.090;14.420;2023-02-15T03:09:12;101001.94;;;7.03;57.04
67740;BME280;54536;50.090;14.420;2023-02-15T03:11:44;101002.22;;;6.97;56.87
67740;BME280;54536;50.090;14.420;2023-02-15T03:14:13;101004.88;;;6.96;57.16
67740;BME280;54536;50.090;14.420;2023-02-15T03:16:43;101002.25;;;7.15;56.50
67740;BME280;54536;50.090;14.420;2023-02-15T03:19:30;101007.75;;;7.09;56.40
67740;BME280;54536;50.090;14.420;2023-02-15T03:22:14;100995.63;;;7.08;56.73
67740;BME280;54536;50.090;14.420;2023-02-15T03:27:17;100996.00;;;7.00;56.93
67740;BME280;54536;50.090;14.420;2023-02-15T03:29:50;100989.69;;;6.68;57.87
67740;BME280;54536;50.090;14.420;2023-02-15T03:32:19;100982.41;;;6.74;57.73
67740;BME280;54536;50.090;14.420;2023-02-15T03:34:46;100986.03;;;6.89;57.68
67740;BME280;54536;50.090;14.420;2023-02-15T03:37:50;100982.19;;;6.96;56.96
67740;BME280;54536;50.090;14.420;2023-02-15T03:40:23;100980.06;;;6.87;57.17
67740;BME280;54536;50.090;14.420;2023-02-15T03:43:22;100981.91;;;7.02;56.80
67740;BME280;54536;50.090;14.420;2023-02-15T03:45:57;100976.41;;;6.90;56.77
67740;BME280;54536;50.090;14.420;2023-02-15T03:48:34;100975.97;;;6.63;57.45
67740;BME280;54536;50.090;14.420;2023-02-15T03:51:11;100976.34;;;6.55;57.79
67740;BME280;54536;50.090;14.420;2023-02-15T03:54:18;100976.06;;;6.42;58.22
67740;BME280;54536;50.090;14.420;2023-02-15T03:57:05;100973.31;;;6.45;58.08
67740;BME280;54536;50.090;14.420;2023-02-15T03:59:51;100968.63;;;6.52;58.01
67740;BME280;54536;50.090;14.420;2023-02-15T04:02:52;100979.72;;;6.57;57.92
67740;BME280;54536;50.090;14.420;2023-02-15T04:05:21;100980.44;;;6.61;58.49
67740;BME280;54536;50.090;14.420;2023-02-15T04:07:47;100981.84;;;6.49;58.38
67740;BME280;54536;50.090;14.420;2023-02-15T04:10:13;100978.66;;;6.23;58.28
67740;BME280;54536;50.090;14.420;2023-02-15T04:12:58;100981.50;;;6.38;58.38
67740;BME280;54536;50.090;14.420;2023-02-15T04:15:24;100977.41;;;6.51;58.21
67740;BME280;54536;50.090;14.420;2023-02-15T04:18:09;100977.31;;;6.71;57.64
67740;BME280;54536;50.090;14.420;2023-02-15T04:20:35;100976.19;;;6.77;56.89
67740;BME280;54536;50.090;14.420;2023-02-15T04:23:20;100980.22;;;6.65;57.53
67740;BME280;54536;50.090;14.420;2023-02-15T04:26:05;100977.59;;;6.46;57.35
67740;BME280;54536;50.090;14.420;2023-02-15T04:28:31;100972.94;;;6.53;57.56
67740;BME280;54536;50.090;14.420;2023-02-15T04:30:57;100974.34;;;6.60;57.81
67740;BME280;54536;50.090;14.420;2023-02-15T04:33:23;100970.41;;;6.32;58.28
67740;BME280;54536;50.090;14.420;2023-02-15T04:35:50;100966.41;;;6.44;57.88
67740;BME280;54536;50.090;14.420;2023-02-15T04:38:16;100975.56;;;6.53;57.74
67740;BME280;54536;50.090;14.420;2023-02-15T04:40:42;100972.03;;;6.35;58.41
67740;BME280;54536;50.090;14.420;2023-02-15T04:43:08;100975.41;;;6.18;58.58
67740;BME280;54536;50.090;14.420;2023-02-15T04:45:34;100974.91;;;6.10;58.63
67740;BME280;54536;50.090;14.420;2023-02-15T04:48:00;100968.34;;;6.20;58.31
67740;BME280;54536;50.090;14.420;2023-02-15T04:50:26;100968.75;;;6.11;58.74
67740;BME280;54536;50.090;14.420;2023-02-15T04:52:52;100973.34;;;6.06;58.85
67740;BME280;54536;50.090;14.420;2023-02-15T04:55:19;100971.03;;;6.19;58.20
67740;BME280;54536;50.090;14.420;2023-02-15T04:57:46;100967.44;;;6.40;57.56
67740;BME280;54536;50.090;14.420;2023-02-15T05:00:12;100966.25;;;6.28;58.35
67740;BME280;54536;50.090;14.420;2023-02-15T05:02:39;100973.50;;;6.03;58.82
67740;BME280;54536;50.090;14.420;2023-02-15T05:05:05;100967.41;;;6.02;59.00
67740;BME280;54536;50.090;14.420;2023-02-15T05:07:31;100965.69;;;6.22;57.99
67740;BME280;54536;50.090;14.420;2023-02-15T05:09:58;100960.38;;;6.23;58.49
67740;BME280;54536;50.090;14.420;2023-02-15T05:12:24;100962.84;;;6.26;58.54
67740;BME280;54536;50.090;14.420;2023-02-15T05:14:50;100956.69;;;6.46;58.14
67740;BME280;54536;50.090;14.420;2023-02-15T05:17:16;100960.16;;;6.09;58.54
67740;BME280;54536;50.090;14.420;2023-02-15T05:19:42;100956.50;;;6.32;58.47
67740;BME280;54536;50.090;14.420;2023-02-15T05:22:08;100957.97;;;6.19;58.08
67740;BME280;54536;50.090;14.420;2023-02-15T05:24:35;100964.25;;;6.15;58.21
67740;BME280;54536;50.090;14.420;2023-02-15T05:27:19;100968.28;;;6.22;57.61
67740;BME280;54536;50.090;14.420;2023-02-15T05:30:04;100963.03;;;6.03;58.51
67740;BME280;54536;50.090;14.420;2023-02-15T05:32:31;100960.34;;;6.04;58.74
67740;BME280;54536;50.090;14.420;2023-02-15T05:34:57;100972.22;;;5.91;59.35
67740;BME280;54536;50.090;14.420;2023-02-15T05:37:23;100963.56;;;5.91;59.16
67740;BME280;54536;50.090;14.420;2023-02-15T05:39:50;100966.00;;;6.14;59.16
67740;BME280;54536;50.090;14.420;2023-02-15T05:42:16;100967.28;;;6.24;58.02
67740;BME280;54536;50.090;14.420;2023-02-15T05:44:42;100967.22;;;6.26;57.90
67740;BME280;54536;50.090;14.420;2023-02-15T05:47:08;100972.03;;;6.16;57.42
67740;BME280;54536;50.090;14.420;2023-02-15T05:49:34;100977.66;;;5.86;58.20
67740;BME280;54536;50.090;14.420;2023-02-15T05:52:00;100971.00;;;5.79;58.10
67740;BME280;54536;50.090;14.420;2023-02-15T05:54:28;100976.50;;;5.73;58.47
67740;BME280;54536;50.090;14.420;2023-02-15T05:56:54;100974.13;;;5.87;57.97
67740;BME280;54536;50.090;14.420;2023-02-15T05:59:20;100965.25;;;5.71;59.25
67740;BME280;54536;50.090;14.420;2023-02-15T06:01:46;100971.91;;;5.78;58.74
67740;BME280;54536;50.090;14.420;2023-02-15T06:04:13;100975.06;;;5.86;58.84
67740;BME280;54536;50.090;14.420;2023-02-15T06:06:39;100979.59;;;5.81;58.63
67740;BME280;54536;50.090;14.420;2023-02-15T06:09:05;100986.47;;;5.84;58.10
67740;BME280;54536;50.090;14.420;2023-02-15T06:11:31;100984.13;;;5.57;58.88
67740;BME280;54536;50.090;14.420;2023-02-15T06:13:58;100984.56;;;5.87;58.26
67740;BME280;54536;50.090;14.420;2023-02-15T06:16:24;100987.53;;;5.80;58.60
67740;BME280;54536;50.090;14.420;2023-02-15T06:18:50;100992.88;;;5.77;58.23
67740;BME280;54536;50.090;14.420;2023-02-15T06:21:16;100993.44;;;5.83;58.33
67740;BME280;54536;50.090;14.420;2023-02-15T06:23:43;100995.81;;;5.69;58.84
67740;BME280;54536;50.090;14.420;2023-02-15T06:26:09;100998.03;;;5.58;58.68
67740;BME280;54536;50.090;14.420;2023-02-15T06:28:35;101002.06;;;5.65;59.37
67740;BME280;54536;50.090;14.420;2023-02-15T06:31:03;100994.78;;;5.73;58.72
67740;BME280;54536;50.090;14.420;2023-02-15T06:33:30;101004.41;;;5.71;58.89
67740;BME280;54536;50.090;14.420;2023-02-15T06:35:56;101010.47;;;5.72;58.77
67740;BME280;54536;50.090;14.420;2023-02-15T06:38:22;101007.56;;;5.79;58.58
67740;BME280;54536;50.090;14.420;2023-02-15T06:40:48;101010.81;;;5.84;58.69
67740;BME280;54536;50.090;14.420;2023-02-15T06:43:15;101004.50;;;5.70;58.42
67740;BME280;54536;50.090;14.420;2023-02-15T06:45:41;101011.06;;;5.58;59.02
67740;BME280;54536;50.090;14.420;2023-02-15T06:48:07;101007.81;;;5.73;58.56
67740;BME280;54536;50.090;14.420;2023-02-15T06:50:34;101008.91;;;5.68;58.60
67740;BME280;54536;50.090;14.420;2023-02-15T06:53:01;101015.78;;;5.70;58.36
67740;BME280;54536;50.090;14.420;2023-02-15T06:55:27;101012.78;;;5.79;58.38
67740;BME280;54536;50.090;14.420;2023-02-15T06:57:53;101020.66;;;5.78;58.51
67740;BME280;54536;50.090;14.420;2023-02-15T07:00:19;101028.22;;;5.43;59.36
67740;BME280;54536;50.090;14.420;2023-02-15T07:02:46;101023.78;;;5.45;59.21
67740;BME280;54536;50.090;14.420;2023-02-15T07:05:12;101025.41;;;5.68;58.54
67740;BME280;54536;50.090;14.420;2023-02-15T07:07:39;101025.16;;;5.74;58.60
67740;BME280;54536;50.090;14.420;2023-02-15T07:10:05;101029.41;;;5.77;58.69
67740;BME280;54536;50.090;14.420;2023-02-15T07:12:32;101027.19;;;5.68;59.04
67740;BME280;54536;50.090;14.420;2023-02-15T07:15:11;101028.22;;;5.63;59.16
67740;BME280;54536;50.090;14.420;2023-02-15T07:17:38;101017.38;;;5.52;59.75
67740;BME280;54536;50.090;14.420;2023-02-15T07:22:35;101011.50;;;5.88;59.39
67740;BME280;54536;50.090;14.420;2023-02-15T07:25:03;101011.06;;;5.78;58.92
67740;BME280;54536;50.090;14.420;2023-02-15T07:27:30;101010.53;;;5.91;58.68
67740;BME280;54536;50.090;14.420;2023-02-15T07:29:58;101010.38;;;5.95;57.83
67740;BME280;54536;50.090;14.420;2023-02-15T07:32:27;101007.00;;;5.93;58.42
67740;BME280;54536;50.090;14.420;2023-02-15T07:34:54;101002.66;;;5.72;58.95
67740;BME280;54536;50.090;14.420;2023-02-15T07:37:20;100992.75;;;5.59;59.42
67740;BME280;54536;50.090;14.420;2023-02-15T07:39:46;100984.84;;;5.40;59.95
67740;BME280;54536;50.090;14.420;2023-02-15T07:42:12;100984.47;;;5.50;59.28
67740;BME280;54536;50.090;14.420;2023-02-15T07:44:38;100979.75;;;5.37;59.25
67740;BME280;54536;50.090;14.420;2023-02-15T07:47:05;100982.03;;;5.45;59.04
67740;BME280;54536;50.090;14.420;2023-02-15T07:49:31;100973.63;;;5.38;59.26
67740;BME280;54536;50.090;14.420;2023-02-15T07:51:57;100974.41;;;5.40;59.55
67740;BME280;54536;50.090;14.420;2023-02-15T07:54:25;100967.69;;;5.76;60.30
67740;BME280;54536;50.090;14.420;2023-02-15T07:56:52;100971.31;;;5.72;58.66
67740;BME280;54536;50.090;14.420;2023-02-15T07:59:18;100965.63;;;5.43;59.54
67740;BME280;54536;50.090;14.420;2023-02-15T08:01:44;100964.59;;;5.25;59.90
67740;BME280;54536;50.090;14.420;2023-02-15T08:04:10;100970.50;;;5.51;59.12
67740;BME280;54536;50.090;14.420;2023-02-15T08:06:37;100976.31;;;5.57;59.62
67740;BME280;54536;50.090;14.420;2023-02-15T08:09:05;100978.06;;;5.57;59.00
67740;BME280;54536;50.090;14.420;2023-02-15T08:11:35;100978.69;;;5.62;59.32
67740;BME280;54536;50.090;14.420;2023-02-15T08:14:09;100979.09;;;5.73;58.23
67740;BME280;54536;50.090;14.420;2023-02-15T08:16:41;100977.00;;;5.81;58.65
67740;BME280;54536;50.090;14.420;2023-02-15T08:21:39;100970.63;;;5.68;58.36
67740;BME280;54536;50.090;14.420;2023-02-15T08:24:07;100968.59;;;5.75;58.44
67740;BME280;54536;50.090;14.420;2023-02-15T08:26:35;100974.34;;;5.42;59.17
67740;BME280;54536;50.090;14.420;2023-02-15T08:29:02;100970.63;;;5.68;58.53
67740;BME280;54536;50.090;14.420;2023-02-15T08:31:29;100976.56;;;5.51;59.27
67740;BME280;54536;50.090;14.420;2023-02-15T08:33:56;100973.03;;;5.52;58.97
67740;BME280;54536;50.090;14.420;2023-02-15T08:36:26;100971.41;;;5.70;58.38
67740;BME280;54536;50.090;14.420;2023-02-15T08:38:53;100981.59;;;5.56;58.57
67740;BME280;54536;50.090;14.420;2023-02-15T08:41:26;100975.59;;;5.54;58.55
67740;BME280;54536;50.090;14.420;2023-02-15T08:43:54;100978.91;;;5.57;58.63
67740;BME280;54536;50.090;14.420;2023-02-15T08:46:25;100967.81;;;5.73;58.77
67740;BME280;54536;50.090;14.420;2023-02-15T08:48:52;100968.28;;;5.82;57.81
67740;BME280;54536;50.090;14.420;2023-02-15T08:51:23;100961.22;;;5.64;58.19
67740;BME280;54536;50.090;14.420;2023-02-15T08:53:53;100963.09;;;5.81;57.74
67740;BME280;54536;50.090;14.420;2023-02-15T08:56:23;100957.97;;;6.00;57.56
67740;BME280;54536;50.090;14.420;2023-02-15T08:58:51;100958.59;;;5.84;57.55
67740;BME280;54536;50.090;14.420;2023-02-15T09:01:21;100958.84;;;5.78;57.85
67740;BME280;54536;50.090;14.420;2023-02-15T09:03:50;100953.00;;;5.73;57.31
67740;BME280;54536;50.090;14.420;2023-02-15T09:06:21;100951.25;;;5.74;57.63
67740;BME280;54536;50.090;14.420;2023-02-15T09:08:48;100957.75;;;5.84;58.02
67740;BME280;54536;50.090;14.420;2023-02-15T09:11:21;100950.78;;;5.64;57.90
67740;BME280;54536;50.090;14.420;2023-02-15T09:13:52;100956.84;;;5.64;58.92
67740;BME280;54536;50.090;14.420;2023-02-15T09:16:20;100951.78;;;5.41;58.92
67740;BME280;54536;50.090;14.420;2023-02-15T09:18:47;100963.19;;;5.79;60.86
67740;BME280;54536;50.090;14.420;2023-02-15T09:21:16;100960.72;;;5.76;60.83
67740;BME280;54536;50.090;14.420;2023-02-15T09:23:45;100956.09;;;5.62;58.66
67740;BME280;54536;50.090;14.420;2023-02-15T09:26:15;100953.16;;;5.70;58.99
67740;BME280;54536;50.090;14.420;2023-02-15T09:28:42;100949.38;;;5.57;58.84
67740;BME280;54536;50.090;14.420;2023-02-15T09:31:13;100951.59;;;5.66;59.32
67740;BME280;54536;50.090;14.420;2023-02-15T09:33:42;100950.72;;;5.66;57.93
67740;BME280;54536;50.090;14.420;2023-02-15T09:36:28;100948.50;;;5.97;59.09
67740;BME280;54536;50.090;14.420;2023-02-15T09:39:15;100943.72;;;5.86;58.22
67740;BME280;54536;50.090;14.420;2023-02-15T10:00:43;100942.88;;;5.86;57.42
67740;BME280;54536;50.090;14.420;2023-02-15T10:09:22;100941.31;;;6.02;57.01
67740;BME280;54536;50.090;14.420;2023-02-15T10:17:32;100948.94;;;5.86;57.21
67740;BME280;54536;50.090;14.420;2023-02-15T10:20:27;100945.41;;;5.87;56.48
67740;BME280;54536;50.090;14.420;2023-02-15T10:23:41;100943.84;;;5.83;56.81
67740;BME280;54536;50.090;14.420;2023-02-15T10:29:03;100943.84;;;5.83;56.96
67740;BME280;54536;50.090;14.420;2023-02-15T10:34:38;100923.59;;;6.09;56.32
67740;BME280;54536;50.090;14.420;2023-02-15T10:50:55;100914.22;;;6.05;56.60
67740;BME280;54536;50.090;14.420;2023-02-15T10:53:45;100903.91;;;6.02;56.56
67740;BME280;54536;50.090;14.420;2023-02-15T10:56:36;100910.75;;;5.84;57.26
67740;BME280;54536;50.090;14.420;2023-02-15T11:08:06;100892.28;;;6.28;56.26
67740;BME280;54536;50.090;14.420;2023-02-15T11:13:18;100887.28;;;6.41;56.08
67740;BME280;54536;50.090;14.420;2023-02-15T11:21:09;100889.75;;;6.44;55.75
67740;BME280;54536;50.090;14.420;2023-02-15T11:23:43;100889.97;;;6.39;55.63
67740;BME280;54536;50.090;14.420;2023-02-15T11:26:30;100882.66;;;6.28;55.89
67740;BME280;54536;50.090;14.420;2023-02-15T11:31:47;100880.34;;;6.59;55.73
67740;BME280;54536;50.090;14.420;2023-02-15T11:34:28;100875.50;;;6.51;55.77
67740;BME280;54536;50.090;14.420;2023-02-15T11:37:19;100875.19;;;6.57;55.66
67740;BME280;54536;50.090;14.420;2023-02-15T11:39:46;100874.94;;;6.44;55.68
67740;BME280;54536;50.090;14.420;2023-02-15T11:42:23;100871.03;;;6.53;55.76
67740;BME280;54536;50.090;14.420;2023-02-15T11:47:20;100863.59;;;6.63;55.90
67740;BME280;54536;50.090;14.420;2023-02-15T11:49:46;100862.97;;;6.57;55.58
67740;BME280;54536;50.090;14.420;2023-02-15T11:52:15;100851.22;;;6.66;55.19
67740;BME280;54536;50.090;14.420;2023-02-15T11:54:46;100851.59;;;6.59;55.09
67740;BME280;54536;50.090;14.420;2023-02-15T11:57:17;100850.56;;;6.44;55.52
67740;BME280;54536;50.090;14.420;2023-02-15T11:59:56;100845.69;;;6.55;55.13
67740;BME280;54536;50.090;14.420;2023-02-15T12:02:24;100843.75;;;6.59;54.83
67740;BME280;54536;50.090;14.420;2023-02-15T12:05:03;100848.06;;;6.60;54.91
67740;BME280;54536;50.090;14.420;2023-02-15T12:07:49;100841.00;;;6.62;55.44
67740;BME280;54536;50.090;14.420;2023-02-15T12:10:31;100836.91;;;6.56;55.55
67740;BME280;54536;50.090;14.420;2023-02-15T12:13:13;100831.97;;;6.32;56.36
67740;BME280;54536;50.090;14.420;2023-02-15T12:15:56;100832.84;;;6.68;55.32
67740;BME280;54536;50.090;14.420;2023-02-15T12:18:35;100826.16;;;6.62;55.23
67740;BME280;54536;50.090;14.420;2023-02-15T12:21:23;100823.94;;;6.72;55.20
67740;BME280;54536;50.090;14.420;2023-02-15T12:23:53;100820.47;;;6.71;55.07
67740;BME280;54536;50.090;14.420;2023-02-15T12:26:34;100818.69;;;6.72;55.04
67740;BME280;54536;50.090;14.420;2023-02-15T12:29:09;100817.88;;;6.71;55.10
67740;BME280;54536;50.090;14.420;2023-02-15T12:31:42;100815.06;;;6.57;54.84
67740;BME280;54536;50.090;14.420;2023-02-15T12:36:47;100811.53;;;6.93;54.37
67740;BME280;54536;50.090;14.420;2023-02-15T12:39:25;100810.31;;;7.00;53.97
67740;BME280;54536;50.090;14.420;2023-02-15T12:44:23;100796.38;;;6.99;54.05
67740;BME280;54536;50.090;14.420;2023-02-15T12:49:34;100794.88;;;6.78;55.01
67740;BME280;54536;50.090;14.420;2023-02-15T12:52:04;100785.16;;;6.97;54.49
67740;BME280;54536;50.090;14.420;2023-02-15T12:54:37;100788.50;;;6.84;54.54
67740;BME280;54536;50.090;14.420;2023-02-15T12:57:27;100781.13;;;6.74;54.91
67740;BME280;54536;50.090;14.420;2023-02-15T13:00:02;100787.44;;;6.70;55.46
67740;BME280;54536;50.090;14.420;2023-02-15T13:02:51;100780.66;;;6.84;55.14
67740;BME280;54536;50.090;14.420;2023-02-15T13:08:03;100782.41;;;6.66;55.65
67740;BME280;54536;50.090;14.420;2023-02-15T13:10:35;100779.63;;;6.86;55.56
67740;BME280;54536;50.090;14.420;2023-02-15T13:13:10;100770.06;;;7.02;54.92
67740;BME280;54536;50.090;14.420;2023-02-15T13:15:41;100762.91;;;7.06;54.71
67740;BME280;54536;50.090;14.420;2023-02-15T13:18:19;100771.06;;;7.17;55.24
67740;BME280;54536;50.090;14.420;2023-02-15T13:20:51;100755.06;;;7.39;53.79
67740;BME280;54536;50.090;14.420;2023-02-15T13:23:28;100759.19;;;7.27;53.89
67740;BME280;54536;50.090;14.420;2023-02-15T13:25:59;100770.63;;;7.25;53.65
67740;BME280;54536;50.090;14.420;2023-02-15T13:28:39;100766.03;;;7.30;53.73
67740;BME280;54536;50.090;14.420;2023-02-15T13:31:14;100766.38;;;7.40;53.54
67740;BME280;54536;50.090;14.420;2023-02-15T13:33:46;100763.72;;;7.24;53.46
67740;BME280;54536;50.090;14.420;2023-02-15T13:36:33;100760.63;;;7.00;53.86
67740;BME280;54536;50.090;14.420;2023-02-15T13:39:10;100755.56;;;6.97;54.85
67740;BME280;54536;50.090;14.420;2023-02-15T13:44:52;100757.28;;;6.80;54.95
67740;BME280;54536;50.090;14.420;2023-02-15T13:47:45;100752.59;;;6.87;54.20
67740;BME280;54536;50.090;14.420;2023-02-15T13:53:02;100752.91;;;7.14;54.12
67740;BME280;54536;50.090;14.420;2023-02-15T13:55:40;100744.63;;;6.89;54.76
67740;BME280;54536;50.090;14.420;2023-02-15T14:01:19;100743.78;;;7.21;54.04
67740;BME280;54536;50.090;14.420;2023-02-15T14:19:59;100744.38;;;7.11;53.72
67740;BME280;54536;50.090;14.420;2023-02-15T14:30:26;100740.25;;;7.07;53.56
67740;BME280;54536;50.090;14.420;2023-02-15T14:33:08;100728.38;;;7.17;53.75
67740;BME280;54536;50.090;14.420;2023-02-15T14:35:36;100720.19;;;7.23;54.31
67740;BME280;54536;50.090;14.420;2023-02-15T14:41:16;100717.41;;;7.42;53.10
67740;BME280;54536;50.090;14.420;2023-02-15T14:49:12;100720.72;;;7.30;54.11
67740;BME280;54536;50.090;14.420;2023-02-15T15:04:42;100716.38;;;7.28;53.88
67740;BME280;54536;50.090;14.420;2023-02-15T15:07:22;100716.63;;;7.24;54.42
67740;BME280;54536;50.090;14.420;2023-02-15T15:12:56;100719.56;;;7.18;54.18
67740;BME280;54536;50.090;14.420;2023-02-15T15:18:04;100727.75;;;7.12;54.63
67740;BME280;54536;50.090;14.420;2023-02-15T15:20:56;100712.84;;;7.30;54.04
67740;BME280;54536;50.090;14.420;2023-02-15T15:25:57;100711.56;;;7.21;54.08
67740;BME280;54536;50.090;14.420;2023-02-15T15:40:34;100699.84;;;7.28;55.13
67740;BME280;54536;50.090;14.420;2023-02-15T15:43:39;100689.81;;;7.20;55.26
67740;BME280;54536;50.090;14.420;2023-02-15T15:46:19;100686.38;;;6.87;55.75
67740;BME280;54536;50.090;14.420;2023-02-15T15:48:52;100690.06;;;6.83;55.64
67740;BME280;54536;50.090;14.420;2023-02-15T15:51:31;100701.28;;;6.85;55.64
67740;BME280;54536;50.090;14.420;2023-02-15T15:53:57;100686.53;;;6.99;54.76
67740;BME280;54536;50.090;14.420;2023-02-15T15:56:35;100688.56;;;6.94;55.31
67740;BME280;54536;50.090;14.420;2023-02-15T15:59:05;100684.88;;;6.98;55.12
67740;BME280;54536;50.090;14.420;2023-02-15T16:01:41;100689.31;;;6.96;54.94
67740;BME280;54536;50.090;14.420;2023-02-15T16:06:50;100684.34;;;6.92;55.80
67740;BME280;54536;50.090;14.420;2023-02-15T16:09:21;100687.13;;;6.89;55.40
67740;BME280;54536;50.090;14.420;2023-02-15T16:11:54;100682.00;;;6.87;55.14
67740;BME280;54536;50.090;14.420;2023-02-15T16:14:32;100691.25;;;6.93;55.07
67740;BME280;54536;50.090;14.420;2023-02-15T16:17:04;100687.81;;;6.92;55.38
67740;BME280;54536;50.090;14.420;2023-02-15T16:19:40;100686.66;;;6.98;54.75
67740;BME280;54536;50.090;14.420;2023-02-15T16:22:15;100685.19;;;6.92;54.43
67740;BME280;54536;50.090;14.420;2023-02-15T16:27:37;100695.75;;;6.91;55.15
67740;BME280;54536;50.090;14.420;2023-02-15T16:35:39;100694.75;;;6.93;55.09
67740;BME280;54536;50.090;14.420;2023-02-15T16:38:10;100700.56;;;6.98;55.15
67740;BME280;54536;50.090;14.420;2023-02-15T16:40:46;100697.09;;;6.98;54.73
67740;BME280;54536;50.090;14.420;2023-02-15T16:43:24;100701.97;;;6.88;55.02
67740;BME280;54536;50.090;14.420;2023-02-15T16:46:20;100705.75;;;6.83;54.98
67740;BME280;54536;50.090;14.420;2023-02-15T16:48:49;100701.53;;;6.63;55.71
67740;BME280;54536;50.090;14.420;2023-02-15T16:51:26;100708.13;;;6.54;55.75